sensor_id;sensor_type;location;lat;lon;timestamp;temperature;humidity
78619;DHT22;67941;52.506;5.470;2024-01-30T00:00:35;7.20;80.40
78619;DHT22;67941;52.506;5.470;2024-01-30T00:03:04;7.20;80.30
78619;DHT22;67941;52.506;5.470;2024-01-30T00:05:33;7.10;80.30
78619;DHT22;67941;52.506;5.470;2024-01-30T00:08:03;7.10;80.30
78619;DHT22;67941;52.506;5.470;2024-01-30T00:10:34;7.00;80.30
78619;DHT22;67941;52.506;5.470;2024-01-30T00:13:03;7.00;80.30
78619;DHT22;67941;52.506;5.470;2024-01-30T00:15:32;7.00;80.30
78619;DHT22;67941;52.506;5.470;2024-01-30T00:18:01;7.00;80.40
78619;DHT22;67941;52.506;5.470;2024-01-30T00:20:30;7.00;80.40
78619;DHT22;67941;52.506;5.470;2024-01-30T00:22:59;7.00;80.40
78619;DHT22;67941;52.506;5.470;2024-01-30T00:25:28;6.90;80.50
78619;DHT22;67941;52.506;5.470;2024-01-30T00:27:59;6.90;80.50
78619;DHT22;67941;52.506;5.470;2024-01-30T00:30:28;6.90;80.50
78619;DHT22;67941;52.506;5.470;2024-01-30T00:32:57;6.90;80.50
78619;DHT22;67941;52.506;5.470;2024-01-30T00:35:26;6.90;80.50
78619;DHT22;67941;52.506;5.470;2024-01-30T00:37:55;6.90;80.50
78619;DHT22;67941;52.506;5.470;2024-01-30T00:40:24;6.90;80.50
78619;DHT22;67941;52.506;5.470;2024-01-30T00:42:52;6.90;80.50
78619;DHT22;67941;52.506;5.470;2024-01-30T00:45:24;6.90;80.60
78619;DHT22;67941;52.506;5.470;2024-01-30T00:47:53;6.80;80.60
78619;DHT22;67941;52.506;5.470;2024-01-30T00:50:21;6.90;80.60
78619;DHT22;67941;52.506;5.470;2024-01-30T00:52:50;6.80;80.60
78619;DHT22;67941;52.506;5.470;2024-01-30T00:55:19;6.80;80.70
78619;DHT22;67941;52.506;5.470;2024-01-30T00:57:48;6.80;80.70
78619;DHT22;67941;52.506;5.470;2024-01-30T01:00:17;6.90;80.70
78619;DHT22;67941;52.506;5.470;2024-01-30T01:02:49;6.90;80.70
78619;DHT22;67941;52.506;5.470;2024-01-30T01:05:18;6.90;80.70
78619;DHT22;67941;52.506;5.470;2024-01-30T01:07:47;6.90;80.80
78619;DHT22;67941;52.506;5.470;2024-01-30T01:10:16;6.90;80.80
78619;DHT22;67941;52.506;5.470;2024-01-30T01:12:45;6.90;80.90
78619;DHT22;67941;52.506;5.470;2024-01-30T01:15:14;7.00;80.90
78619;DHT22;67941;52.506;5.470;2024-01-30T01:17:43;7.00;81.00
78619;DHT22;67941;52.506;5.470;2024-01-30T01:20:15;7.00;81.00
78619;DHT22;67941;52.506;5.470;2024-01-30T01:22:44;7.00;81.10
78619;DHT22;67941;52.506;5.470;2024-01-30T01:25:13;7.10;81.10
78619;DHT22;67941;52.506;5.470;2024-01-30T01:27:42;7.20;81.00
78619;DHT22;67941;52.506;5.470;2024-01-30T01:30:17;7.20;81.00
78619;DHT22;67941;52.506;5.470;2024-01-30T01:32:48;7.20;81.00
78619;DHT22;67941;52.506;5.470;2024-01-30T01:35:24;7.20;81.00
78619;DHT22;67941;52.506;5.470;2024-01-30T01:37:53;7.30;80.90
78619;DHT22;67941;52.506;5.470;2024-01-30T01:40:25;7.30;81.00
78619;DHT22;67941;52.506;5.470;2024-01-30T01:42:56;7.30;80.90
78619;DHT22;67941;52.506;5.470;2024-01-30T01:45:25;7.40;80.90
78619;DHT22;67941;52.506;5.470;2024-01-30T01:47:54;7.40;80.90
78619;DHT22;67941;52.506;5.470;2024-01-30T01:50:26;7.40;81.00
78619;DHT22;67941;52.506;5.470;2024-01-30T01:52:55;7.40;80.90
78619;DHT22;67941;52.506;5.470;2024-01-30T01:55:24;7.40;80.90
78619;DHT22;67941;52.506;5.470;2024-01-30T01:57:54;7.40;80.90
78619;DHT22;67941;52.506;5.470;2024-01-30T02:00:23;7.40;80.90
78619;DHT22;67941;52.506;5.470;2024-01-30T02:02:53;7.40;81.00
78619;DHT22;67941;52.506;5.470;2024-01-30T02:05:26;7.40;81.00
78619;DHT22;67941;52.506;5.470;2024-01-30T02:07:56;7.40;81.10
78619;DHT22;67941;52.506;5.470;2024-01-30T02:10:25;7.40;81.20
78619;DHT22;67941;52.506;5.470;2024-01-30T02:12:53;7.40;81.20
78619;DHT22;67941;52.506;5.470;2024-01-30T02:15:23;7.50;81.20
78619;DHT22;67941;52.506;5.470;2024-01-30T02:17:51;7.50;81.20
78619;DHT22;67941;52.506;5.470;2024-01-30T02:20:21;7.50;81.10
78619;DHT22;67941;52.506;5.470;2024-01-30T02:22:54;7.50;81.10
78619;DHT22;67941;52.506;5.470;2024-01-30T02:25:31;7.50;81.10
78619;DHT22;67941;52.506;5.470;2024-01-30T02:27:59;7.60;81.20
78619;DHT22;67941;52.506;5.470;2024-01-30T02:30:28;7.60;81.20
78619;DHT22;67941;52.506;5.470;2024-01-30T02:32:57;7.60;81.10
78619;DHT22;67941;52.506;5.470;2024-01-30T02:35:26;7.60;81.20
78619;DHT22;67941;52.506;5.470;2024-01-30T02:37:57;7.70;81.10
78619;DHT22;67941;52.506;5.470;2024-01-30T02:40:26;7.80;81.10
78619;DHT22;67941;52.506;5.470;2024-01-30T02:42:56;7.80;81.10
78619;DHT22;67941;52.506;5.470;2024-01-30T02:45:24;7.80;81.10
78619;DHT22;67941;52.506;5.470;2024-01-30T02:47:53;7.80;81.00
78619;DHT22;67941;52.506;5.470;2024-01-30T02:50:22;7.80;81.00
78619;DHT22;67941;52.506;5.470;2024-01-30T02:52:51;7.80;80.90
78619;DHT22;67941;52.506;5.470;2024-01-30T02:55:22;7.80;80.90
78619;DHT22;67941;52.506;5.470;2024-01-30T02:57:51;7.80;80.90
78619;DHT22;67941;52.506;5.470;2024-01-30T03:00:20;7.80;80.80
78619;DHT22;67941;52.506;5.470;2024-01-30T03:02:49;7.70;80.80
78619;DHT22;67941;52.506;5.470;2024-01-30T03:05:18;7.60;80.80
78619;DHT22;67941;52.506;5.470;2024-01-30T03:07:47;7.60;80.70
78619;DHT22;67941;52.506;5.470;2024-01-30T03:10:16;7.50;80.80
78619;DHT22;67941;52.506;5.470;2024-01-30T03:12:47;7.50;80.70
78619;DHT22;67941;52.506;5.470;2024-01-30T03:15:16;7.50;80.80
78619;DHT22;67941;52.506;5.470;2024-01-30T03:17:45;7.50;80.90
78619;DHT22;67941;52.506;5.470;2024-01-30T03:20:14;7.40;81.00
78619;DHT22;67941;52.506;5.470;2024-01-30T03:22:43;7.40;81.00
78619;DHT22;67941;52.506;5.470;2024-01-30T03:25:12;7.40;81.10
78619;DHT22;67941;52.506;5.470;2024-01-30T03:27:41;7.40;81.10
78619;DHT22;67941;52.506;5.470;2024-01-30T03:30:13;7.40;81.20
78619;DHT22;67941;52.506;5.470;2024-01-30T03:32:41;7.50;81.20
78619;DHT22;67941;52.506;5.470;2024-01-30T03:35:10;7.50;81.20
78619;DHT22;67941;52.506;5.470;2024-01-30T03:37:39;7.50;81.20
78619;DHT22;67941;52.506;5.470;2024-01-30T03:40:09;7.50;81.20
78619;DHT22;67941;52.506;5.470;2024-01-30T03:42:38;7.50;81.20
78619;DHT22;67941;52.506;5.470;2024-01-30T03:45:08;7.60;81.10
78619;DHT22;67941;52.506;5.470;2024-01-30T03:47:39;7.60;81.10
78619;DHT22;67941;52.506;5.470;2024-01-30T03:50:09;7.60;81.10
78619;DHT22;67941;52.506;5.470;2024-01-30T03:52:38;7.60;81.10
78619;DHT22;67941;52.506;5.470;2024-01-30T03:55:08;7.60;81.10
78619;DHT22;67941;52.506;5.470;2024-01-30T03:57:36;7.60;81.00
78619;DHT22;67941;52.506;5.470;2024-01-30T04:00:07;7.60;81.10
78619;DHT22;67941;52.506;5.470;2024-01-30T04:02:42;7.60;81.10
78619;DHT22;67941;52.506;5.470;2024-01-30T04:05:11;7.70;81.20
78619;DHT22;67941;52.506;5.470;2024-01-30T04:07:40;7.70;81.10
78619;DHT22;67941;52.506;5.470;2024-01-30T04:10:10;7.80;81.20
78619;DHT22;67941;52.506;5.470;2024-01-30T04:12:38;7.80;81.20
78619;DHT22;67941;52.506;5.470;2024-01-30T04:15:08;7.80;81.10
78619;DHT22;67941;52.506;5.470;2024-01-30T04:17:37;7.80;81.10
78619;DHT22;67941;52.506;5.470;2024-01-30T04:20:13;7.80;81.10
78619;DHT22;67941;52.506;5.470;2024-01-30T04:22:43;7.80;81.10
78619;DHT22;67941;52.506;5.470;2024-01-30T04:25:11;7.80;81.10
78619;DHT22;67941;52.506;5.470;2024-01-30T04:27:40;7.80;81.10
78619;DHT22;67941;52.506;5.470;2024-01-30T04:30:10;7.80;81.20
78619;DHT22;67941;52.506;5.470;2024-01-30T04:32:39;7.80;81.20
78619;DHT22;67941;52.506;5.470;2024-01-30T04:35:11;7.90;81.20
78619;DHT22;67941;52.506;5.470;2024-01-30T04:37:39;7.90;81.20
78619;DHT22;67941;52.506;5.470;2024-01-30T04:40:09;7.90;81.20
78619;DHT22;67941;52.506;5.470;2024-01-30T04:42:38;8.00;81.10
78619;DHT22;67941;52.506;5.470;2024-01-30T04:45:07;8.00;81.10
78619;DHT22;67941;52.506;5.470;2024-01-30T04:47:36;8.00;81.10
78619;DHT22;67941;52.506;5.470;2024-01-30T04:50:07;8.00;81.10
78619;DHT22;67941;52.506;5.470;2024-01-30T04:52:38;8.00;81.10
78619;DHT22;67941;52.506;5.470;2024-01-30T04:55:08;8.00;81.10
78619;DHT22;67941;52.506;5.470;2024-01-30T04:57:37;8.00;81.20
78619;DHT22;67941;52.506;5.470;2024-01-30T05:00:07;8.00;81.20
78619;DHT22;67941;52.506;5.470;2024-01-30T05:02:36;8.00;81.20
78619;DHT22;67941;52.506;5.470;2024-01-30T05:05:05;8.00;81.20
78619;DHT22;67941;52.506;5.470;2024-01-30T05:07:34;8.00;81.20
78619;DHT22;67941;52.506;5.470;2024-01-30T05:10:06;8.00;81.20
78619;DHT22;67941;52.506;5.470;2024-01-30T05:12:35;8.00;81.20
78619;DHT22;67941;52.506;5.470;2024-01-30T05:15:04;8.00;81.20
78619;DHT22;67941;52.506;5.470;2024-01-30T05:17:33;8.00;81.20
78619;DHT22;67941;52.506;5.470;2024-01-30T05:20:03;8.00;81.20
78619;DHT22;67941;52.506;5.470;2024-01-30T05:22:32;8.00;81.20
78619;DHT22;67941;52.506;5.470;2024-01-30T05:25:00;8.10;81.20
78619;DHT22;67941;52.506;5.470;2024-01-30T05:27:32;8.10;81.30
78619;DHT22;67941;52.506;5.470;2024-01-30T05:30:01;8.10;81.30
78619;DHT22;67941;52.506;5.470;2024-01-30T05:32:29;8.10;81.20
78619;DHT22;67941;52.506;5.470;2024-01-30T05:34:58;8.10;81.20
78619;DHT22;67941;52.506;5.470;2024-01-30T05:37:27;8.10;81.20
78619;DHT22;67941;52.506;5.470;2024-01-30T05:39:56;8.20;81.30
78619;DHT22;67941;52.506;5.470;2024-01-30T05:42:25;8.20;81.20
78619;DHT22;67941;52.506;5.470;2024-01-30T05:44:56;8.20;81.20
78619;DHT22;67941;52.506;5.470;2024-01-30T05:47:25;8.20;81.30
78619;DHT22;67941;52.506;5.470;2024-01-30T05:49:54;8.20;81.30
78619;DHT22;67941;52.506;5.470;2024-01-30T05:52:23;8.20;81.40
78619;DHT22;67941;52.506;5.470;2024-01-30T05:54:52;8.30;81.30
78619;DHT22;67941;52.506;5.470;2024-01-30T05:57:21;8.30;81.30
78619;DHT22;67941;52.506;5.470;2024-01-30T05:59:50;8.30;81.30
78619;DHT22;67941;52.506;5.470;2024-01-30T06:02:21;8.30;81.30
78619;DHT22;67941;52.506;5.470;2024-01-30T06:04:50;8.30;81.30
78619;DHT22;67941;52.506;5.470;2024-01-30T06:07:19;8.30;81.20
78619;DHT22;67941;52.506;5.470;2024-01-30T06:09:48;8.30;81.20
78619;DHT22;67941;52.506;5.470;2024-01-30T06:12:16;8.30;81.20
78619;DHT22;67941;52.506;5.470;2024-01-30T06:14:45;8.30;81.20
78619;DHT22;67941;52.506;5.470;2024-01-30T06:17:14;8.30;81.20
78619;DHT22;67941;52.506;5.470;2024-01-30T06:19:45;8.30;81.20
78619;DHT22;67941;52.506;5.470;2024-01-30T06:22:14;8.30;81.20
78619;DHT22;67941;52.506;5.470;2024-01-30T06:24:43;8.30;81.20
78619;DHT22;67941;52.506;5.470;2024-01-30T06:27:14;8.30;81.20
78619;DHT22;67941;52.506;5.470;2024-01-30T06:29:43;8.30;81.30
78619;DHT22;67941;52.506;5.470;2024-01-30T06:32:12;8.30;81.30
78619;DHT22;67941;52.506;5.470;2024-01-30T06:34:41;8.30;81.40
78619;DHT22;67941;52.506;5.470;2024-01-30T06:37:13;8.30;81.40
78619;DHT22;67941;52.506;5.470;2024-01-30T06:39:41;8.30;81.40
78619;DHT22;67941;52.506;5.470;2024-01-30T06:42:10;8.30;81.40
78619;DHT22;67941;52.506;5.470;2024-01-30T06:44:39;8.30;81.50
78619;DHT22;67941;52.506;5.470;2024-01-30T06:47:08;8.30;81.50
78619;DHT22;67941;52.506;5.470;2024-01-30T06:49:37;8.40;81.50
78619;DHT22;67941;52.506;5.470;2024-01-30T06:52:08;8.40;81.50
78619;DHT22;67941;52.506;5.470;2024-01-30T06:54:39;8.40;81.50
78619;DHT22;67941;52.506;5.470;2024-01-30T06:57:08;8.40;81.50
78619;DHT22;67941;52.506;5.470;2024-01-30T06:59:40;8.40;81.50
78619;DHT22;67941;52.506;5.470;2024-01-30T07:02:10;8.50;81.60
78619;DHT22;67941;52.506;5.470;2024-01-30T07:04:38;8.50;81.50
78619;DHT22;67941;52.506;5.470;2024-01-30T07:07:08;8.50;81.60
78619;DHT22;67941;52.506;5.470;2024-01-30T07:09:41;8.50;81.60
78619;DHT22;67941;52.506;5.470;2024-01-30T07:12:10;8.60;81.60
78619;DHT22;67941;52.506;5.470;2024-01-30T07:14:39;8.60;81.60
78619;DHT22;67941;52.506;5.470;2024-01-30T07:17:08;8.60;81.50
78619;DHT22;67941;52.506;5.470;2024-01-30T07:19:36;8.60;81.50
78619;DHT22;67941;52.506;5.470;2024-01-30T07:22:05;8.70;81.50
78619;DHT22;67941;52.506;5.470;2024-01-30T07:24:34;8.70;81.50
78619;DHT22;67941;52.506;5.470;2024-01-30T07:27:06;8.80;81.50
78619;DHT22;67941;52.506;5.470;2024-01-30T07:29:34;8.80;81.50
78619;DHT22;67941;52.506;5.470;2024-01-30T07:32:03;8.80;81.50
78619;DHT22;67941;52.506;5.470;2024-01-30T07:34:32;8.90;81.50
78619;DHT22;67941;52.506;5.470;2024-01-30T07:37:02;8.90;81.50
78619;DHT22;67941;52.506;5.470;2024-01-30T07:39:31;8.90;81.50
78619;DHT22;67941;52.506;5.470;2024-01-30T07:41:59;8.90;81.60
78619;DHT22;67941;52.506;5.470;2024-01-30T07:44:31;8.90;81.60
78619;DHT22;67941;52.506;5.470;2024-01-30T07:47:00;9.00;81.60
78619;DHT22;67941;52.506;5.470;2024-01-30T07:49:29;9.00;81.60
78619;DHT22;67941;52.506;5.470;2024-01-30T07:51:58;9.00;81.60
78619;DHT22;67941;52.506;5.470;2024-01-30T07:54:27;9.00;81.70
78619;DHT22;67941;52.506;5.470;2024-01-30T07:57:00;9.00;81.70
78619;DHT22;67941;52.506;5.470;2024-01-30T07:59:31;9.10;81.70
78619;DHT22;67941;52.506;5.470;2024-01-30T08:02:04;9.20;81.70
78619;DHT22;67941;52.506;5.470;2024-01-30T08:04:33;9.20;81.70
78619;DHT22;67941;52.506;5.470;2024-01-30T08:07:02;9.20;81.70
78619;DHT22;67941;52.506;5.470;2024-01-30T08:09:31;9.30;81.80
78619;DHT22;67941;52.506;5.470;2024-01-30T08:12:00;9.40;81.80
78619;DHT22;67941;52.506;5.470;2024-01-30T08:14:31;9.40;81.90
78619;DHT22;67941;52.506;5.470;2024-01-30T08:17:00;9.50;81.90
78619;DHT22;67941;52.506;5.470;2024-01-30T08:19:29;9.60;81.90
78619;DHT22;67941;52.506;5.470;2024-01-30T08:21:58;9.70;81.90
78619;DHT22;67941;52.506;5.470;2024-01-30T08:24:26;9.70;81.90
78619;DHT22;67941;52.506;5.470;2024-01-30T08:26:55;9.80;81.90
78619;DHT22;67941;52.506;5.470;2024-01-30T08:32:11;10.00;81.80
78619;DHT22;67941;52.506;5.470;2024-01-30T08:34:40;10.00;81.80
78619;DHT22;67941;52.506;5.470;2024-01-30T08:37:09;10.00;81.80
78619;DHT22;67941;52.506;5.470;2024-01-30T08:39:42;10.10;81.80
78619;DHT22;67941;52.506;5.470;2024-01-30T08:42:11;10.20;81.80
78619;DHT22;67941;52.506;5.470;2024-01-30T08:44:40;10.20;81.80
78619;DHT22;67941;52.506;5.470;2024-01-30T08:47:12;10.30;81.80
78619;DHT22;67941;52.506;5.470;2024-01-30T08:49:42;10.30;81.70
78619;DHT22;67941;52.506;5.470;2024-01-30T08:52:11;10.40;81.70
78619;DHT22;67941;52.506;5.470;2024-01-30T08:54:40;10.40;81.70
78619;DHT22;67941;52.506;5.470;2024-01-30T08:57:09;10.50;81.70
78619;DHT22;67941;52.506;5.470;2024-01-30T08:59:38;10.50;81.70
78619;DHT22;67941;52.506;5.470;2024-01-30T09:02:07;10.50;81.60
78619;DHT22;67941;52.506;5.470;2024-01-30T09:04:38;10.60;81.60
78619;DHT22;67941;52.506;5.470;2024-01-30T09:07:09;10.60;81.60
78619;DHT22;67941;52.506;5.470;2024-01-30T09:09:39;10.70;81.70
78619;DHT22;67941;52.506;5.470;2024-01-30T09:12:08;10.70;81.70
78619;DHT22;67941;52.506;5.470;2024-01-30T09:14:38;10.80;81.70
78619;DHT22;67941;52.506;5.470;2024-01-30T09:17:07;10.80;81.80
78619;DHT22;67941;52.506;5.470;2024-01-30T09:19:39;10.90;81.70
78619;DHT22;67941;52.506;5.470;2024-01-30T09:22:08;11.00;81.70
78619;DHT22;67941;52.506;5.470;2024-01-30T09:24:37;11.10;81.60
78619;DHT22;67941;52.506;5.470;2024-01-30T09:27:06;11.10;81.50
78619;DHT22;67941;52.506;5.470;2024-01-30T09:29:35;11.10;81.60
78619;DHT22;67941;52.506;5.470;2024-01-30T09:32:05;11.20;81.50
78619;DHT22;67941;52.506;5.470;2024-01-30T09:34:34;11.20;81.60
78619;DHT22;67941;52.506;5.470;2024-01-30T09:37:07;11.30;81.60
78619;DHT22;67941;52.506;5.470;2024-01-30T09:39:37;11.40;81.50
78619;DHT22;67941;52.506;5.470;2024-01-30T09:42:11;11.40;81.50
78619;DHT22;67941;52.506;5.470;2024-01-30T09:44:42;11.50;81.40
78619;DHT22;67941;52.506;5.470;2024-01-30T09:47:12;11.50;81.40
78619;DHT22;67941;52.506;5.470;2024-01-30T09:49:42;11.50;81.50
78619;DHT22;67941;52.506;5.470;2024-01-30T09:52:14;11.50;81.40
78619;DHT22;67941;52.506;5.470;2024-01-30T09:54:45;11.60;81.30
78619;DHT22;67941;52.506;5.470;2024-01-30T09:57:14;11.70;81.40
78619;DHT22;67941;52.506;5.470;2024-01-30T09:59:43;11.70;81.30
78619;DHT22;67941;52.506;5.470;2024-01-30T10:02:11;11.70;81.20
78619;DHT22;67941;52.506;5.470;2024-01-30T10:04:41;11.70;81.20
78619;DHT22;67941;52.506;5.470;2024-01-30T10:07:10;11.70;81.20
78619;DHT22;67941;52.506;5.470;2024-01-30T10:09:42;11.70;81.10
78619;DHT22;67941;52.506;5.470;2024-01-30T10:12:12;11.70;81.10
78619;DHT22;67941;52.506;5.470;2024-01-30T10:14:41;11.70;81.00
78619;DHT22;67941;52.506;5.470;2024-01-30T10:17:11;11.70;81.00
78619;DHT22;67941;52.506;5.470;2024-01-30T10:19:41;11.70;80.90
78619;DHT22;67941;52.506;5.470;2024-01-30T10:22:10;11.70;80.90
78619;DHT22;67941;52.506;5.470;2024-01-30T10:24:42;11.70;80.90
78619;DHT22;67941;52.506;5.470;2024-01-30T10:27:11;11.70;81.00
78619;DHT22;67941;52.506;5.470;2024-01-30T10:29:40;11.80;81.10
78619;DHT22;67941;52.506;5.470;2024-01-30T10:32:09;11.90;81.00
78619;DHT22;67941;52.506;5.470;2024-01-30T10:34:38;11.90;80.90
78619;DHT22;67941;52.506;5.470;2024-01-30T10:37:09;11.90;80.90
78619;DHT22;67941;52.506;5.470;2024-01-30T10:39:45;12.00;80.80
78619;DHT22;67941;52.506;5.470;2024-01-30T10:42:15;12.00;80.70
78619;DHT22;67941;52.506;5.470;2024-01-30T10:44:48;12.00;80.70
78619;DHT22;67941;52.506;5.470;2024-01-30T10:47:26;12.00;80.70
78619;DHT22;67941;52.506;5.470;2024-01-30T10:49:56;11.90;80.60
78619;DHT22;67941;52.506;5.470;2024-01-30T10:52:26;11.90;80.40
78619;DHT22;67941;52.506;5.470;2024-01-30T10:54:58;11.90;80.30
78619;DHT22;67941;52.506;5.470;2024-01-30T10:57:28;11.90;80.20
78619;DHT22;67941;52.506;5.470;2024-01-30T10:59:58;11.70;80.00
78619;DHT22;67941;52.506;5.470;2024-01-30T11:02:27;11.70;80.10
78619;DHT22;67941;52.506;5.470;2024-01-30T11:04:58;11.60;80.20
78619;DHT22;67941;52.506;5.470;2024-01-30T11:07:29;11.50;80.20
78619;DHT22;67941;52.506;5.470;2024-01-30T11:10:05;11.50;80.00
78619;DHT22;67941;52.506;5.470;2024-01-30T11:12:39;11.50;80.00
78619;DHT22;67941;52.506;5.470;2024-01-30T11:15:12;11.50;80.00
78619;DHT22;67941;52.506;5.470;2024-01-30T11:17:45;11.50;80.00
78619;DHT22;67941;52.506;5.470;2024-01-30T11:20:20;11.50;79.80
78619;DHT22;67941;52.506;5.470;2024-01-30T11:22:51;11.50;79.50
78619;DHT22;67941;52.506;5.470;2024-01-30T11:25:24;11.40;79.50
78619;DHT22;67941;52.506;5.470;2024-01-30T11:27:54;11.40;79.40
78619;DHT22;67941;52.506;5.470;2024-01-30T11:30:23;11.40;79.40
78619;DHT22;67941;52.506;5.470;2024-01-30T11:33:02;11.40;79.30
78619;DHT22;67941;52.506;5.470;2024-01-30T11:35:34;11.40;79.00
78619;DHT22;67941;52.506;5.470;2024-01-30T11:38:03;11.40;78.90
78619;DHT22;67941;52.506;5.470;2024-01-30T11:40:36;11.30;78.70
78619;DHT22;67941;52.506;5.470;2024-01-30T11:43:08;11.30;78.80
78619;DHT22;67941;52.506;5.470;2024-01-30T11:45:37;11.20;78.80
78619;DHT22;67941;52.506;5.470;2024-01-30T11:48:07;11.10;78.60
78619;DHT22;67941;52.506;5.470;2024-01-30T11:50:38;11.10;78.70
78619;DHT22;67941;52.506;5.470;2024-01-30T11:53:07;11.10;78.70
78619;DHT22;67941;52.506;5.470;2024-01-30T11:55:39;11.10;78.70
78619;DHT22;67941;52.506;5.470;2024-01-30T11:58:07;11.10;78.60
78619;DHT22;67941;52.506;5.470;2024-01-30T12:00:36;11.10;78.60
78619;DHT22;67941;52.506;5.470;2024-01-30T12:03:05;11.10;78.50
78619;DHT22;67941;52.506;5.470;2024-01-30T12:05:34;11.00;78.40
78619;DHT22;67941;52.506;5.470;2024-01-30T12:08:15;11.00;78.30
78619;DHT22;67941;52.506;5.470;2024-01-30T12:10:46;11.00;78.30
78619;DHT22;67941;52.506;5.470;2024-01-30T12:13:23;10.90;78.20
78619;DHT22;67941;52.506;5.470;2024-01-30T12:15:53;10.90;78.10
78619;DHT22;67941;52.506;5.470;2024-01-30T12:18:22;10.80;78.10
78619;DHT22;67941;52.506;5.470;2024-01-30T12:20:57;10.70;78.10
78619;DHT22;67941;52.506;5.470;2024-01-30T12:23:27;10.60;78.10
78619;DHT22;67941;52.506;5.470;2024-01-30T12:25:59;10.60;78.20
78619;DHT22;67941;52.506;5.470;2024-01-30T12:28:29;10.50;78.30
78619;DHT22;67941;52.506;5.470;2024-01-30T12:31:01;10.50;78.50
78619;DHT22;67941;52.506;5.470;2024-01-30T12:33:30;10.50;78.60
78619;DHT22;67941;52.506;5.470;2024-01-30T12:36:01;10.60;78.70
78619;DHT22;67941;52.506;5.470;2024-01-30T12:38:30;10.60;78.70
78619;DHT22;67941;52.506;5.470;2024-01-30T12:41:02;10.80;78.70
78619;DHT22;67941;52.506;5.470;2024-01-30T12:43:31;10.90;78.70
78619;DHT22;67941;52.506;5.470;2024-01-30T12:46:00;11.00;78.60
78619;DHT22;67941;52.506;5.470;2024-01-30T12:48:29;11.10;78.50
78619;DHT22;67941;52.506;5.470;2024-01-30T12:50:58;11.10;78.30
78619;DHT22;67941;52.506;5.470;2024-01-30T12:56:15;11.20;78.00
78619;DHT22;67941;52.506;5.470;2024-01-30T12:58:44;11.10;77.90
78619;DHT22;67941;52.506;5.470;2024-01-30T13:01:13;11.10;77.90
78619;DHT22;67941;52.506;5.470;2024-01-30T13:03:41;11.10;77.90
78619;DHT22;67941;52.506;5.470;2024-01-30T13:06:10;11.00;77.90
78619;DHT22;67941;52.506;5.470;2024-01-30T13:08:39;11.00;78.00
78619;DHT22;67941;52.506;5.470;2024-01-30T13:11:08;10.90;78.00
78619;DHT22;67941;52.506;5.470;2024-01-30T13:13:41;10.90;77.90
78619;DHT22;67941;52.506;5.470;2024-01-30T13:16:10;10.80;77.90
78619;DHT22;67941;52.506;5.470;2024-01-30T13:18:38;10.70;77.90
78619;DHT22;67941;52.506;5.470;2024-01-30T13:21:10;10.60;77.90
78619;DHT22;67941;52.506;5.470;2024-01-30T13:23:38;10.50;77.90
78619;DHT22;67941;52.506;5.470;2024-01-30T13:26:07;10.40;78.00
78619;DHT22;67941;52.506;5.470;2024-01-30T13:28:36;10.40;78.10
78619;DHT22;67941;52.506;5.470;2024-01-30T13:31:08;10.30;78.20
78619;DHT22;67941;52.506;5.470;2024-01-30T13:33:37;10.20;78.30
78619;DHT22;67941;52.506;5.470;2024-01-30T13:36:07;10.20;78.30
78619;DHT22;67941;52.506;5.470;2024-01-30T13:38:36;10.10;78.30
78619;DHT22;67941;52.506;5.470;2024-01-30T13:41:05;10.10;78.40
78619;DHT22;67941;52.506;5.470;2024-01-30T13:43:33;10.00;78.40
78619;DHT22;67941;52.506;5.470;2024-01-30T13:46:02;10.00;78.40
78619;DHT22;67941;52.506;5.470;2024-01-30T13:48:34;9.90;78.50
78619;DHT22;67941;52.506;5.470;2024-01-30T13:51:03;9.80;78.60
78619;DHT22;67941;52.506;5.470;2024-01-30T13:53:32;9.80;78.60
78619;DHT22;67941;52.506;5.470;2024-01-30T13:56:01;9.70;78.60
78619;DHT22;67941;52.506;5.470;2024-01-30T13:58:30;9.70;78.60
78619;DHT22;67941;52.506;5.470;2024-01-30T14:00:59;9.70;78.70
78619;DHT22;67941;52.506;5.470;2024-01-30T14:03:28;9.60;78.70
78619;DHT22;67941;52.506;5.470;2024-01-30T14:06:00;9.50;78.70
78619;DHT22;67941;52.506;5.470;2024-01-30T14:08:29;9.50;78.90
78619;DHT22;67941;52.506;5.470;2024-01-30T14:10:58;9.50;79.00
78619;DHT22;67941;52.506;5.470;2024-01-30T14:13:27;9.50;78.90
78619;DHT22;67941;52.506;5.470;2024-01-30T14:15:57;9.40;79.00
78619;DHT22;67941;52.506;5.470;2024-01-30T14:18:25;9.40;79.00
78619;DHT22;67941;52.506;5.470;2024-01-30T14:20:54;9.40;79.10
78619;DHT22;67941;52.506;5.470;2024-01-30T14:23:26;9.40;79.20
78619;DHT22;67941;52.506;5.470;2024-01-30T14:25:55;9.40;79.20
78619;DHT22;67941;52.506;5.470;2024-01-30T14:28:23;9.40;79.20
78619;DHT22;67941;52.506;5.470;2024-01-30T14:30:52;9.30;79.30
78619;DHT22;67941;52.506;5.470;2024-01-30T14:33:21;9.30;79.40
78619;DHT22;67941;52.506;5.470;2024-01-30T14:35:50;9.30;79.40
78619;DHT22;67941;52.506;5.470;2024-01-30T14:38:19;9.30;79.40
78619;DHT22;67941;52.506;5.470;2024-01-30T14:40:50;9.20;79.40
78619;DHT22;67941;52.506;5.470;2024-01-30T14:43:16;9.20;79.50
78619;DHT22;67941;52.506;5.470;2024-01-30T14:45:45;9.20;79.60
78619;DHT22;67941;52.506;5.470;2024-01-30T14:48:15;9.20;79.70
78619;DHT22;67941;52.506;5.470;2024-01-30T14:50:44;9.20;79.80
78619;DHT22;67941;52.506;5.470;2024-01-30T14:53:13;9.20;79.80
78619;DHT22;67941;52.506;5.470;2024-01-30T14:55:42;9.20;79.90
78619;DHT22;67941;52.506;5.470;2024-01-30T14:58:13;9.20;79.80
78619;DHT22;67941;52.506;5.470;2024-01-30T15:00:42;9.20;79.80
78619;DHT22;67941;52.506;5.470;2024-01-30T15:03:11;9.20;79.80
78619;DHT22;67941;52.506;5.470;2024-01-30T15:05:43;9.20;79.90
78619;DHT22;67941;52.506;5.470;2024-01-30T15:08:12;9.10;79.90
78619;DHT22;67941;52.506;5.470;2024-01-30T15:10:41;9.00;79.90
78619;DHT22;67941;52.506;5.470;2024-01-30T15:13:09;9.00;80.00
78619;DHT22;67941;52.506;5.470;2024-01-30T15:15:41;9.00;80.00
78619;DHT22;67941;52.506;5.470;2024-01-30T15:18:10;9.00;80.00
78619;DHT22;67941;52.506;5.470;2024-01-30T15:20:39;9.00;80.10
78619;DHT22;67941;52.506;5.470;2024-01-30T15:23:08;9.00;80.10
78619;DHT22;67941;52.506;5.470;2024-01-30T15:25:37;8.90;80.20
78619;DHT22;67941;52.506;5.470;2024-01-30T15:28:06;8.90;80.20
78619;DHT22;67941;52.506;5.470;2024-01-30T15:30:35;8.90;80.30
78619;DHT22;67941;52.506;5.470;2024-01-30T15:33:07;8.90;80.30
78619;DHT22;67941;52.506;5.470;2024-01-30T15:35:35;8.80;80.30
78619;DHT22;67941;52.506;5.470;2024-01-30T15:38:04;8.80;80.30
78619;DHT22;67941;52.506;5.470;2024-01-30T15:40:34;8.80;80.40
78619;DHT22;67941;52.506;5.470;2024-01-30T15:43:03;8.80;80.50
78619;DHT22;67941;52.506;5.470;2024-01-30T15:45:32;8.80;80.40
78619;DHT22;67941;52.506;5.470;2024-01-30T15:48:01;8.70;80.40
78619;DHT22;67941;52.506;5.470;2024-01-30T15:50:32;8.60;80.40
78619;DHT22;67941;52.506;5.470;2024-01-30T15:53:01;8.60;80.40
78619;DHT22;67941;52.506;5.470;2024-01-30T15:55:30;8.60;80.40
78619;DHT22;67941;52.506;5.470;2024-01-30T15:58:00;8.50;80.40
78619;DHT22;67941;52.506;5.470;2024-01-30T16:00:29;8.50;80.50